Time;durP1;ratioP1;P1;durP2;ratioP2;P2;SDS_P1;SDS_P2;PMS_P1;PMS_P2;Temp;Humidity;BMP_temperature;BMP_pressure;BME280_temperature;BME280_humidity;BME280_pressure;Samples;Min_cycle;Max_cycle;Signal;HPM_P1;HPM_P2
2021/08/11 00:01:29;;;;;;;;;;;;;;;20.72;57.28;100670.91;5118641;28;1001;-51
2021/08/11 00:03:54;;;;;;;;;;;;;;;20.50;58.77;100672.34;5119318;28;763;-53
2021/08/11 00:06:20;;;;;;;;;;;;;;;20.57;58.63;100654.59;5119099;28;1042;-54
2021/08/11 00:08:46;;;;;;;;;;;;;;;20.01;58.57;100665.44;5118781;28;1913;-42
2021/08/11 00:11:12;;;;;;;;;;;;;;;20.04;59.80;100670.34;5119356;28;774;-48
2021/08/11 00:13:37;;;;;;;;;;;;;;;20.34;57.45;100674.56;5118614;28;759;-53
2021/08/11 00:16:03;;;;;;;;;;;;;;;20.38;57.11;100669.25;5118670;28;962;-42
2021/08/11 00:18:28;;;;;;;;;;;;;;;20.56;56.48;100670.31;5118996;28;775;-41
2021/08/11 00:20:53;;;;;;;;;;;;;;;20.60;56.49;100659.50;5119768;28;787;-48
2021/08/11 00:23:19;;;;;;;;;;;;;;;20.66;56.28;100664.63;5118559;28;807;-52
2021/08/11 00:25:44;;;;;;;;;;;;;;;20.61;56.47;100661.94;5118955;28;932;-51
2021/08/11 00:28:10;;;;;;;;;;;;;;;20.64;56.22;100661.34;5118859;28;1914;-50
2021/08/11 00:30:35;;;;;;;;;;;;;;;20.81;55.82;100655.25;5118518;28;844;-53
2021/08/11 00:33:01;;;;;;;;;;;;;;;20.85;55.80;100661.81;5100288;28;1110;-53
2021/08/11 00:35:27;;;;;;;;;;;;;;;20.82;55.86;100670.72;5100710;28;1233;-52
2021/08/11 00:37:52;;;;;;;;;;;;;;;20.87;55.77;100667.03;5100118;28;1157;-42
2021/08/11 00:40:20;;;;;;;;;;;;;;;20.71;56.40;100665.69;5100729;28;1323;-48
2021/08/11 00:42:45;;;;;;;;;;;;;;;20.73;56.27;100667.00;5100769;28;768;-53
2021/08/11 00:45:14;;;;;;;;;;;;;;;20.36;57.52;100660.44;5100112;28;1149;-50
2021/08/11 00:47:40;;;;;;;;;;;;;;;20.25;57.27;100650.72;5118095;28;1029;-51
2021/08/11 00:50:07;;;;;;;;;;;;;;;19.57;59.49;100648.09;5100392;28;1988;-50
2021/08/11 00:52:33;;;;;;;;;;;;;;;20.18;58.61;100640.03;5100201;28;1165;-50
2021/08/11 00:55:01;;;;;;;;;;;;;;;20.59;58.56;100646.78;5099714;28;1106;-51
2021/08/11 00:57:28;;;;;;;;;;;;;;;20.95;58.39;100648.94;5100587;28;1248;-51
2021/08/11 00:59:55;;;;;;;;;;;;;;;21.06;58.97;100646.78;5083114;28;1236;-49
2021/08/11 01:02:21;;;;;;;;;;;;;;;20.73;60.59;100653.19;5099733;28;1113;-49
2021/08/11 01:04:51;;;;;;;;;;;;;;;20.64;60.65;100643.94;5083476;28;1177;-47
2021/08/11 01:07:19;;;;;;;;;;;;;;;20.08;60.15;100654.81;5117653;28;1051;-47
2021/08/11 01:09:44;;;;;;;;;;;;;;;20.66;61.88;100647.22;5083500;28;1910;-49
2021/08/11 01:12:10;;;;;;;;;;;;;;;21.05;61.29;100640.41;5083292;28;1170;-48
2021/08/11 01:14:35;;;;;;;;;;;;;;;21.26;60.75;100640.00;5117944;28;776;-48
2021/08/11 01:17:06;;;;;;;;;;;;;;;20.96;61.55;100631.22;5099189;28;1270;-51
2021/08/11 01:19:33;;;;;;;;;;;;;;;20.72;61.52;100631.38;5099954;28;1233;-47
2021/08/11 01:22:04;;;;;;;;;;;;;;;20.22;59.90;100632.78;5099773;28;1252;-50
2021/08/11 01:24:48;;;;;;;;;;;;;;;20.09;60.35;100633.56;5117642;28;744;-49
2021/08/11 01:27:18;;;;;;;;;;;;;;;20.42;57.51;100642.66;5099481;28;1201;-49
2021/08/11 01:30:02;;;;;;;;;;;;;;;20.52;56.72;100649.94;5098797;28;1914;-50
2021/08/11 01:32:41;;;;;;;;;;;;;;;20.73;56.71;100653.19;5099686;28;1209;-52
2021/08/11 01:35:07;;;;;;;;;;;;;;;20.92;56.69;100653.13;5082565;28;1131;-53
2021/08/11 01:37:32;;;;;;;;;;;;;;;20.86;57.31;100651.59;5098923;28;760;-46
2021/08/11 01:39:58;;;;;;;;;;;;;;;21.01;57.25;100651.28;5082755;28;1140;-53
2021/08/11 01:42:30;;;;;;;;;;;;;;;21.05;57.29;100656.19;5083081;28;1119;-50
2021/08/11 01:45:01;;;;;;;;;;;;;;;20.66;58.81;100648.06;5099006;28;1126;-51
2021/08/11 01:47:29;;;;;;;;;;;;;;;20.57;59.33;100649.06;5099220;28;1117;-51
2021/08/11 01:49:55;;;;;;;;;;;;;;;20.21;59.09;100646.91;5081596;28;1922;-52
2021/08/11 01:52:20;;;;;;;;;;;;;;;20.61;59.66;100655.63;5098692;28;1268;-51
2021/08/11 01:54:46;;;;;;;;;;;;;;;20.99;59.00;100658.25;5098647;28;2152;-42
2021/08/11 01:57:12;;;;;;;;;;;;;;;21.27;59.04;100656.28;5098488;28;844;-53
2021/08/11 01:59:38;;;;;;;;;;;;;;;20.99;60.50;100661.00;5098671;28;2019;-52
2021/08/11 02:02:04;;;;;;;;;;;;;;;20.87;61.50;100661.50;5072632;28;1296;-51
2021/08/11 02:04:31;;;;;;;;;;;;;;;20.70;60.92;100662.09;5078452;28;1273;-53
2021/08/11 02:06:56;;;;;;;;;;;;;;;20.30;60.08;100647.84;5077570;28;1174;-52
2021/08/11 02:09:22;;;;;;;;;;;;;;;20.67;62.68;100660.75;5061569;28;1980;-52
2021/08/11 02:11:50;;;;;;;;;;;;;;;21.28;61.78;100646.88;5062333;28;960;-52
2021/08/11 02:14:17;;;;;;;;;;;;;;;21.60;60.62;100650.66;5078391;28;1114;-50
2021/08/11 02:16:45;;;;;;;;;;;;;;;21.71;60.37;100651.22;5068157;28;1233;-51
2021/08/11 02:19:10;;;;;;;;;;;;;;;21.35;61.56;100647.28;5082030;28;1158;-53
2021/08/11 02:21:36;;;;;;;;;;;;;;;21.09;62.62;100649.75;5098390;28;1089;-53
2021/08/11 02:24:02;;;;;;;;;;;;;;;20.89;61.60;100648.22;5098706;28;950;-44
2021/08/11 02:26:29;;;;;;;;;;;;;;;20.44;59.42;100659.75;5081996;28;1240;-51
2021/08/11 02:29:00;;;;;;;;;;;;;;;20.90;60.70;100662.84;5098341;28;1914;-49
2021/08/11 02:31:35;;;;;;;;;;;;;;;21.35;62.20;100666.63;5098707;28;966;-51
2021/08/11 02:34:03;;;;;;;;;;;;;;;21.61;60.76;100666.09;5098591;28;1248;-52
2021/08/11 02:36:32;;;;;;;;;;;;;;;21.47;58.71;100666.09;5080544;28;825;-51
2021/08/11 02:39:00;;;;;;;;;;;;;;;21.16;57.45;100666.72;5098543;28;1173;-41
2021/08/11 02:41:28;;;;;;;;;;;;;;;20.93;56.22;100662.22;5116690;28;767;-42
2021/08/11 02:43:59;;;;;;;;;;;;;;;20.91;54.62;100665.28;5098467;28;726;-47
2021/08/11 02:46:25;;;;;;;;;;;;;;;20.69;54.06;100665.97;5097875;28;1201;-53
2021/08/11 02:48:53;;;;;;;;;;;;;;;20.51;53.83;100665.72;5081438;28;1909;-53
2021/08/11 02:51:19;;;;;;;;;;;;;;;20.67;52.94;100659.91;5081277;28;1224;-52
2021/08/11 02:53:44;;;;;;;;;;;;;;;20.51;52.94;100676.75;5098237;28;1233;-48
2021/08/11 02:56:12;;;;;;;;;;;;;;;20.43;52.73;100663.66;5098514;28;1102;-51
2021/08/11 02:58:37;;;;;;;;;;;;;;;20.43;52.48;100671.94;5097910;28;752;-42
2021/08/11 03:01:03;;;;;;;;;;;;;;;20.60;53.09;100665.03;5098016;28;1208;-53
2021/08/11 03:03:28;;;;;;;;;;;;;;;20.67;54.52;100660.75;5081973;28;1264;-52
2021/08/11 03:05:54;;;;;;;;;;;;;;;20.89;55.52;100673.09;5097763;28;1572;-48
2021/08/11 03:08:21;;;;;;;;;;;;;;;21.11;55.84;100660.50;5098369;28;1905;-53
2021/08/11 03:10:47;;;;;;;;;;;;;;;21.09;56.87;100657.22;5098466;28;1338;-57
2021/08/11 03:13:13;;;;;;;;;;;;;;;20.68;58.93;100665.16;5096322;28;1129;-47
2021/08/11 03:15:41;;;;;;;;;;;;;;;20.59;59.64;100669.72;5097923;28;1388;-44
2021/08/11 03:18:07;;;;;;;;;;;;;;;20.08;59.57;100679.66;5099369;28;1181;-58
2021/08/11 03:20:32;;;;;;;;;;;;;;;20.45;61.69;100666.91;5101675;28;1220;-46
2021/08/11 03:22:58;;;;;;;;;;;;;;;20.98;59.79;100662.13;5085279;28;1443;-59
2021/08/11 03:25:23;;;;;;;;;;;;;;;21.10;59.56;100662.44;5101611;28;2167;-57
2021/08/11 03:27:50;;;;;;;;;;;;;;;20.89;60.23;100675.00;5101358;28;1137;-59
2021/08/11 03:30:19;;;;;;;;;;;;;;;20.76;60.84;100674.72;5120046;28;1918;-58
2021/08/11 03:32:44;;;;;;;;;;;;;;;20.40;60.56;100678.06;5119831;28;1009;-58
2021/08/11 03:35:11;;;;;;;;;;;;;;;20.25;60.32;100681.06;5119844;28;759;-58
2021/08/11 03:37:36;;;;;;;;;;;;;;;20.72;61.85;100673.69;5101161;28;1227;-58
2021/08/11 03:40:05;;;;;;;;;;;;;;;21.27;59.67;100672.06;5101556;28;1121;-57
2021/08/11 03:42:31;;;;;;;;;;;;;;;21.26;59.57;100673.19;5101441;28;1201;-48
2021/08/11 03:44:56;;;;;;;;;;;;;;;21.04;60.11;100685.78;5101517;28;1106;-57
2021/08/11 03:47:21;;;;;;;;;;;;;;;20.82;61.18;100689.25;5119055;28;931;-58
2021/08/11 03:49:50;;;;;;;;;;;;;;;20.63;60.99;100692.03;5101806;28;1917;-58
2021/08/11 03:52:16;;;;;;;;;;;;;;;20.21;60.08;100691.06;5100737;28;1165;-44
2021/08/11 03:54:42;;;;;;;;;;;;;;;20.44;62.79;100695.66;5101496;28;1102;-43
2021/08/11 04:00:30;;;;;;;;;;;;;;;21.27;59.95;100694.19;5119611;28;621;-44
2021/08/11 04:02:55;;;;;;;;;;;;;;;20.80;61.40;100700.63;5119532;28;977;-43
2021/08/11 04:05:20;;;;;;;;;;;;;;;20.65;61.11;100698.06;5119447;28;811;-44
2021/08/11 04:07:46;;;;;;;;;;;;;;;20.39;60.15;100692.19;5119419;28;991;-60
2021/08/11 04:10:12;;;;;;;;;;;;;;;20.43;61.67;100701.50;5119674;28;1984;-57
2021/08/11 04:12:37;;;;;;;;;;;;;;;20.88;61.22;100695.50;5100793;28;1385;-56
2021/08/11 04:15:03;;;;;;;;;;;;;;;21.30;60.04;100699.09;5119749;28;847;-48
2021/08/11 04:17:29;;;;;;;;;;;;;;;21.27;59.90;100691.44;5118350;28;906;-57
2021/08/11 04:19:54;;;;;;;;;;;;;;;20.92;61.10;100691.81;5119386;28;890;-57
2021/08/11 04:22:19;;;;;;;;;;;;;;;20.84;61.04;100693.31;5119045;28;617;-59
2021/08/11 04:24:45;;;;;;;;;;;;;;;20.28;60.20;100695.09;5119015;28;609;-57
2021/08/11 04:27:10;;;;;;;;;;;;;;;20.51;62.29;100687.81;5118594;28;1110;-58
2021/08/11 04:29:35;;;;;;;;;;;;;;;20.87;61.99;100685.56;5118354;28;1988;-58
2021/08/11 04:32:01;;;;;;;;;;;;;;;21.15;60.94;100691.94;5118890;28;950;-56
2021/08/11 04:34:26;;;;;;;;;;;;;;;21.18;60.77;100686.63;5119034;28;744;-57
2021/08/11 04:36:51;;;;;;;;;;;;;;;20.94;61.42;100688.75;5118771;28;921;-58
2021/08/11 04:39:17;;;;;;;;;;;;;;;20.84;61.67;100687.00;5118842;28;652;-62
2021/08/11 04:41:42;;;;;;;;;;;;;;;20.46;59.88;100681.56;5118450;28;621;-49
2021/08/11 04:44:10;;;;;;;;;;;;;;;20.62;60.50;100685.69;5118223;28;605;-44
2021/08/11 04:46:39;;;;;;;;;;;;;;;21.18;61.24;100686.63;5118264;28;911;-57
2021/08/11 04:49:04;;;;;;;;;;;;;;;21.36;60.88;100675.75;5118569;28;1906;-45
2021/08/11 04:51:30;;;;;;;;;;;;;;;21.59;59.87;100673.06;5118165;28;601;-44
2021/08/11 04:53:55;;;;;;;;;;;;;;;21.17;61.05;100678.63;5119127;28;787;-45
2021/08/11 04:56:21;;;;;;;;;;;;;;;20.99;61.59;100678.41;5118066;28;606;-45
2021/08/11 04:58:46;;;;;;;;;;;;;;;20.68;61.34;100683.69;5118034;28;847;-46
2021/08/11 05:01:12;;;;;;;;;;;;;;;20.38;60.17;100679.47;5118164;28;978;-45
2021/08/11 05:03:37;;;;;;;;;;;;;;;20.80;61.74;100681.28;5118426;28;720;-46
2021/08/11 05:06:06;;;;;;;;;;;;;;;20.95;60.64;100685.66;5118353;28;924;-50
2021/08/11 05:08:32;;;;;;;;;;;;;;;21.15;60.43;100690.00;5118016;28;1988;-58
2021/08/11 05:10:57;;;;;;;;;;;;;;;21.34;59.97;100684.34;5118525;28;871;-59
2021/08/11 05:13:22;;;;;;;;;;;;;;;20.87;61.70;100691.09;5118307;28;878;-45
2021/08/11 05:15:48;;;;;;;;;;;;;;;20.94;61.61;100685.97;5118086;28;644;-45
2021/08/11 05:18:13;;;;;;;;;;;;;;;20.74;60.50;100689.94;5117243;28;923;-45
2021/08/11 05:20:38;;;;;;;;;;;;;;;20.39;59.68;100697.69;5117765;28;744;-58
2021/08/11 05:23:04;;;;;;;;;;;;;;;21.08;61.27;100688.75;5118203;28;725;-46
2021/08/11 05:25:29;;;;;;;;;;;;;;;21.38;60.49;100687.31;5118584;28;889;-58
2021/08/11 05:27:55;;;;;;;;;;;;;;;21.62;59.74;100689.88;5117735;28;1079;-45
2021/08/11 05:30:20;;;;;;;;;;;;;;;21.06;61.39;100699.31;5117782;28;1959;-45
2021/08/11 05:32:45;;;;;;;;;;;;;;;21.07;61.54;100699.00;5117527;28;1091;-46
2021/08/11 05:35:11;;;;;;;;;;;;;;;20.76;60.83;100705.09;5117133;28;636;-47
2021/08/11 05:37:36;;;;;;;;;;;;;;;20.26;59.60;100694.56;5099692;28;1369;-47
2021/08/11 05:40:02;;;;;;;;;;;;;;;20.99;60.96;100703.28;5117320;28;661;-47
2021/08/11 05:42:27;;;;;;;;;;;;;;;21.31;61.39;100704.31;5117746;28;866;-60
2021/08/11 05:44:53;;;;;;;;;;;;;;;21.53;60.61;100692.56;5117528;28;653;-45
2021/08/11 05:47:18;;;;;;;;;;;;;;;21.08;61.61;100703.38;5117361;28;966;-60
2021/08/11 05:49:43;;;;;;;;;;;;;;;21.00;62.07;100701.34;5116896;28;1906;-46
2021/08/11 05:52:09;;;;;;;;;;;;;;;20.79;61.56;100698.13;5117363;28;645;-57
2021/08/11 05:54:37;;;;;;;;;;;;;;;20.27;60.54;100695.38;5117281;28;581;-45
2021/08/11 05:57:03;;;;;;;;;;;;;;;20.99;61.30;100694.19;5117125;28;767;-46
2021/08/11 05:59:29;;;;;;;;;;;;;;;21.13;62.38;100695.00;5117340;28;883;-61
2021/08/11 06:01:54;;;;;;;;;;;;;;;21.49;61.04;100685.97;5117305;28;938;-46
2021/08/11 06:04:22;;;;;;;;;;;;;;;21.42;61.00;100691.13;5116881;28;487;-48
2021/08/11 06:06:47;;;;;;;;;;;;;;;21.06;61.46;100693.78;5117010;28;964;-44
2021/08/11 06:09:13;;;;;;;;;;;;;;;20.92;61.77;100693.75;5116930;28;1968;-48
2021/08/11 06:11:39;;;;;;;;;;;;;;;20.63;60.53;100697.56;5117233;28;1027;-59
2021/08/11 06:14:05;;;;;;;;;;;;;;;21.00;60.30;100701.34;5117153;28;820;-46
2021/08/11 06:16:30;;;;;;;;;;;;;;;21.64;61.65;100700.63;5116981;28;1037;-60
2021/08/11 06:18:57;;;;;;;;;;;;;;;21.97;61.88;100703.25;5117087;28;815;-45
2021/08/11 06:21:23;;;;;;;;;;;;;;;21.65;62.77;100707.81;5117554;28;745;-54
2021/08/11 06:23:51;;;;;;;;;;;;;;;21.34;63.90;100708.44;5117248;28;775;-58
2021/08/11 06:26:16;;;;;;;;;;;;;;;20.96;61.94;100706.66;5116351;28;836;-46
2021/08/11 06:28:42;;;;;;;;;;;;;;;20.26;57.73;100708.38;5116726;28;1980;-58
2021/08/11 06:31:08;;;;;;;;;;;;;;;20.58;58.37;100717.81;5117164;28;970;-57
2021/08/11 06:33:33;;;;;;;;;;;;;;;20.48;57.22;100715.19;5116640;28;819;-42
2021/08/11 06:35:59;;;;;;;;;;;;;;;20.47;55.29;100711.63;5116991;28;739;-45
2021/08/11 06:38:24;;;;;;;;;;;;;;;20.52;53.88;100708.78;5116676;28;866;-58
2021/08/11 06:40:50;;;;;;;;;;;;;;;20.46;53.41;100709.97;5116283;28;796;-46
2021/08/11 06:43:15;;;;;;;;;;;;;;;20.38;53.13;100707.09;5116939;28;835;-56
2021/08/11 06:45:41;;;;;;;;;;;;;;;20.50;52.68;100711.03;5099067;28;1128;-61
2021/08/11 06:48:06;;;;;;;;;;;;;;;20.72;52.16;100711.53;5097746;28;1093;-57
2021/08/11 06:50:32;;;;;;;;;;;;;;;20.57;52.45;100720.88;5098483;28;1965;-57
2021/08/11 06:52:57;;;;;;;;;;;;;;;20.64;51.98;100715.78;5117850;28;1032;-58
2021/08/11 06:55:22;;;;;;;;;;;;;;;20.93;51.43;100717.50;5120495;28;823;-56
2021/08/11 06:57:49;;;;;;;;;;;;;;;20.75;51.92;100720.03;5120982;28;823;-59
2021/08/11 07:00:15;;;;;;;;;;;;;;;20.70;51.76;100722.88;5120830;28;819;-57
2021/08/11 07:02:40;;;;;;;;;;;;;;;20.75;51.69;100713.66;5120665;28;966;-58
2021/08/11 07:05:06;;;;;;;;;;;;;;;20.82;52.34;100723.22;5120660;28;799;-47
2021/08/11 07:07:32;;;;;;;;;;;;;;;20.77;54.06;100719.72;5120884;28;1500;-51
2021/08/11 07:09:57;;;;;;;;;;;;;;;20.84;55.37;100712.66;5120063;28;1913;-59
2021/08/11 07:12:23;;;;;;;;;;;;;;;20.94;55.97;100717.19;5120811;28;894;-56
2021/08/11 07:14:48;;;;;;;;;;;;;;;21.18;56.28;100714.28;5120541;28;768;-58
2021/08/11 07:17:14;;;;;;;;;;;;;;;21.06;57.17;100713.94;5120051;28;993;-53
2021/08/11 07:19:40;;;;;;;;;;;;;;;20.66;58.99;100710.75;5120281;28;842;-59
2021/08/11 07:22:05;;;;;;;;;;;;;;;20.70;58.96;100711.81;5120378;28;859;-58
2021/08/11 07:24:31;;;;;;;;;;;;;;;20.14;58.30;100711.59;5120599;28;811;-58
2021/08/11 07:26:56;;;;;;;;;;;;;;;20.48;60.38;100713.28;5120036;28;1123;-56
2021/08/11 07:29:22;;;;;;;;;;;;;;;20.78;60.96;100702.84;5119931;28;1913;-47
2021/08/11 07:31:47;;;;;;;;;;;;;;;21.19;61.43;100702.06;5120018;28;1092;-60
2021/08/11 07:34:12;;;;;;;;;;;;;;;21.07;63.48;100701.78;5119947;28;866;-51
2021/08/11 07:36:38;;;;;;;;;;;;;;;21.24;63.87;100703.91;5120045;28;850;-59
2021/08/11 07:39:03;;;;;;;;;;;;;;;20.83;62.48;100697.22;5120252;28;735;-46
2021/08/11 07:41:29;;;;;;;;;;;;;;;20.45;59.72;100702.00;5119505;28;739;-60
2021/08/11 07:43:54;;;;;;;;;;;;;;;21.00;58.83;100696.63;5119956;28;850;-58
2021/08/11 07:46:19;;;;;;;;;;;;;;;21.56;60.21;100704.13;5119791;28;942;-47
2021/08/11 07:48:45;;;;;;;;;;;;;;;21.41;61.48;100702.50;5119628;28;1977;-46
2021/08/11 07:51:10;;;;;;;;;;;;;;;21.46;61.28;100696.84;5119725;28;759;-61
2021/08/11 07:53:36;;;;;;;;;;;;;;;21.31;61.01;100703.53;5119990;28;811;-60
2021/08/11 07:56:01;;;;;;;;;;;;;;;21.27;59.95;100699.72;5119360;28;807;-55
2021/08/11 07:58:26;;;;;;;;;;;;;;;21.13;59.55;100697.75;5119609;28;736;-57
2021/08/11 08:00:52;;;;;;;;;;;;;;;20.81;60.10;100699.47;5119735;28;744;-46
2021/08/11 08:03:17;;;;;;;;;;;;;;;20.70;60.20;100706.31;5119155;28;1017;-46
2021/08/11 08:05:43;;;;;;;;;;;;;;;20.34;57.97;100699.41;5118811;28;840;-51
2021/08/11 08:08:08;;;;;;;;;;;;;;;20.67;59.59;100695.84;5119281;28;1156;-43
2021/08/11 08:10:34;;;;;;;;;;;;;;;20.81;59.29;100701.41;5119236;28;1913;-48
2021/08/11 08:12:59;;;;;;;;;;;;;;;20.82;59.19;100690.06;5119741;28;763;-44
2021/08/11 08:15:25;;;;;;;;;;;;;;;21.09;58.30;100699.50;5119934;28;791;-44
2021/08/11 08:17:50;;;;;;;;;;;;;;;21.01;58.61;100689.16;5119020;28;962;-45
2021/08/11 08:20:16;;;;;;;;;;;;;;;20.80;59.44;100691.47;5119263;28;815;-44
2021/08/11 08:22:41;;;;;;;;;;;;;;;20.82;59.35;100690.06;5119433;28;835;-45
2021/08/11 08:25:08;;;;;;;;;;;;;;;20.29;59.04;100691.22;5119026;28;847;-44
2021/08/11 08:27:33;;;;;;;;;;;;;;;20.44;59.44;100692.91;5119222;28;1182;-45
2021/08/11 08:29:58;;;;;;;;;;;;;;;20.92;59.94;100679.94;5119308;28;1914;-45
2021/08/11 08:32:27;;;;;;;;;;;;;;;21.17;59.00;100682.19;5118346;28;1017;-44
2021/08/11 08:34:53;;;;;;;;;;;;;;;21.17;59.30;100676.66;5118936;28;846;-46
2021/08/11 08:37:26;;;;;;;;;;;;;;;20.91;60.28;100675.53;5118966;28;594;-49
2021/08/11 08:39:51;;;;;;;;;;;;;;;20.74;61.14;100682.47;5118623;28;764;-62
2021/08/11 08:42:17;;;;;;;;;;;;;;;20.31;59.38;100677.94;5118952;28;732;-61
2021/08/11 08:44:42;;;;;;;;;;;;;;;20.80;60.71;100667.44;5118886;28;807;-47
2021/08/11 08:47:08;;;;;;;;;;;;;;;21.10;60.44;100669.94;5118096;28;989;-45
2021/08/11 08:49:34;;;;;;;;;;;;;;;21.17;59.88;100665.63;5118818;28;1917;-45
2021/08/11 08:51:59;;;;;;;;;;;;;;;20.92;60.77;100666.13;5118835;28;771;-45
2021/08/11 08:54:25;;;;;;;;;;;;;;;20.72;61.47;100661.78;5118622;28;827;-61
2021/08/11 08:56:51;;;;;;;;;;;;;;;20.70;59.80;100655.75;5100210;28;812;-62
2021/08/11 08:59:16;;;;;;;;;;;;;;;20.66;59.28;100658.25;5118259;28;772;-59
2021/08/11 09:01:42;;;;;;;;;;;;;;;21.17;60.52;100654.56;5117947;28;1025;-44
2021/08/11 09:04:07;;;;;;;;;;;;;;;21.41;59.66;100661.81;5100167;28;906;-44
2021/08/11 09:06:33;;;;;;;;;;;;;;;21.36;59.70;100657.22;5118329;28;1050;-46
2021/08/11 09:09:04;;;;;;;;;;;;;;;20.84;61.23;100649.09;5118144;28;1917;-45
2021/08/11 09:11:30;;;;;;;;;;;;;;;20.82;61.47;100648.59;5118084;28;847;-54
2021/08/11 09:14:14;;;;;;;;;;;;;;;20.26;59.90;100646.81;5118243;28;751;-58
2021/08/11 09:16:46;;;;;;;;;;;;;;;20.89;60.20;100639.06;5117357;28;1001;-58
2021/08/11 09:19:12;;;;;;;;;;;;;;;21.30;60.49;100649.31;5118259;28;850;-47
2021/08/11 09:21:37;;;;;;;;;;;;;;;21.66;59.32;100641.09;5118023;28;838;-45
2021/08/11 09:24:03;;;;;;;;;;;;;;;21.56;59.17;100657.09;5118106;28;811;-45
2021/08/11 09:26:30;;;;;;;;;;;;;;;21.23;60.19;100643.41;5099430;28;1144;-57
2021/08/11 09:28:55;;;;;;;;;;;;;;;21.03;60.99;100650.97;5099764;28;1913;-46
2021/08/11 09:31:21;;;;;;;;;;;;;;;21.07;57.17;100643.72;5099274;28;1309;-47
2021/08/11 09:34:06;;;;;;;;;;;;;;;21.40;58.72;100632.50;5117771;28;791;-61
2021/08/11 09:36:42;;;;;;;;;;;;;;;21.58;59.76;100633.53;5117903;28;839;-60
2021/08/11 09:39:07;;;;;;;;;;;;;;;21.79;58.83;100633.06;5117362;28;850;-60
2021/08/11 09:41:33;;;;;;;;;;;;;;;21.44;59.67;100632.72;5117667;28;823;-46
2021/08/11 09:44:08;;;;;;;;;;;;;;;21.23;60.35;100632.34;5117703;28;850;-59
2021/08/11 09:46:34;;;;;;;;;;;;;;;21.00;59.81;100626.72;5117017;28;970;-55
2021/08/11 09:48:59;;;;;;;;;;;;;;;20.90;56.85;100629.66;5098930;28;1909;-47
2021/08/11 09:51:25;;;;;;;;;;;;;;;21.44;58.82;100633.53;5117496;28;787;-58
2021/08/11 09:53:53;;;;;;;;;;;;;;;21.78;59.36;100640.53;5117425;28;747;-49
2021/08/11 09:56:18;;;;;;;;;;;;;;;21.88;58.76;100639.47;5117332;28;834;-58
2021/08/11 09:58:53;;;;;;;;;;;;;;;21.46;59.92;100631.28;5117797;28;812;-44
2021/08/11 10:01:18;;;;;;;;;;;;;;;21.24;60.63;100628.41;5081450;28;978;-47
2021/08/11 10:04:03;;;;;;;;;;;;;;;21.29;58.95;100634.66;5116970;28;859;-55
2021/08/11 10:06:50;;;;;;;;;;;;;;;21.13;57.75;100628.66;5116887;28;1034;-58
2021/08/11 10:09:20;;;;;;;;;;;;;;;21.47;60.22;100627.38;5096328;28;1917;-47
2021/08/11 10:11:49;;;;;;;;;;;;;;;21.76;59.26;100623.44;5096945;28;854;-47
2021/08/11 10:14:16;;;;;;;;;;;;;;;21.61;59.28;100637.63;5078731;28;889;-44
2021/08/11 10:16:41;;;;;;;;;;;;;;;21.34;60.45;100639.28;5102256;28;943;-48
2021/08/11 10:19:07;;;;;;;;;;;;;;;21.29;60.26;100634.66;5117212;28;818;-60
2021/08/11 10:21:34;;;;;;;;;;;;;;;20.85;57.75;100633.38;5117509;28;868;-48
2021/08/11 10:23:59;;;;;;;;;;;;;;;21.24;59.24;100631.19;5097863;28;905;-45
2021/08/11 10:26:26;;;;;;;;;;;;;;;21.65;59.81;100641.41;5116900;28;771;-45
2021/08/11 10:28:52;;;;;;;;;;;;;;;22.03;58.83;100632.75;5116060;28;1988;-46
2021/08/11 10:31:17;;;;;;;;;;;;;;;21.88;59.04;100626.47;5116700;28;946;-45
2021/08/11 10:33:47;;;;;;;;;;;;;;;21.43;60.23;100625.53;5116899;28;788;-45
2021/08/11 10:36:12;;;;;;;;;;;;;;;21.44;60.21;100625.22;5099411;28;759;-44
2021/08/11 10:38:38;;;;;;;;;;;;;;;21.07;57.60;100613.31;5098285;28;942;-63
2021/08/11 10:41:03;;;;;;;;;;;;;;;21.14;58.68;100621.16;5098729;28;848;-46
2021/08/11 10:43:32;;;;;;;;;;;;;;;21.72;59.67;100614.13;5116402;28;862;-45
2021/08/11 10:45:59;;;;;;;;;;;;;;;21.83;59.63;100607.22;5116147;28;965;-45
2021/08/11 10:48:24;;;;;;;;;;;;;;;21.88;59.17;100607.09;5098377;28;2002;-58
2021/08/11 10:50:50;;;;;;;;;;;;;;;21.39;60.73;100614.25;5098560;28;799;-57
2021/08/11 10:53:15;;;;;;;;;;;;;;;21.27;61.12;100603.75;5097932;28;1218;-59
2021/08/11 10:55:45;;;;;;;;;;;;;;;21.12;57.90;100599.34;5116578;28;786;-44
2021/08/11 10:58:11;;;;;;;;;;;;;;;21.17;58.01;100602.03;5116535;28;920;-44
2021/08/11 11:00:39;;;;;;;;;;;;;;;21.65;59.84;100591.59;5116369;28;906;-44
2021/08/11 11:03:05;;;;;;;;;;;;;;;21.85;59.58;100593.88;5116379;28;958;-43
2021/08/11 11:05:31;;;;;;;;;;;;;;;21.80;59.67;100590.44;5117011;28;770;-46
2021/08/11 11:08:15;;;;;;;;;;;;;;;21.23;61.29;100591.66;5115961;28;1070;-54
2021/08/11 11:10:44;;;;;;;;;;;;;;;21.27;61.19;100592.69;5116552;28;1974;-61
2021/08/11 11:13:32;;;;;;;;;;;;;;;21.12;57.96;100593.81;5098616;28;863;-47
2021/08/11 11:15:59;;;;;;;;;;;;;;;21.14;59.33;100585.22;5116013;28;1017;-60
2021/08/11 11:18:24;;;;;;;;;;;;;;;21.73;60.08;100590.03;5116331;28;815;-57
2021/08/11 11:20:56;;;;;;;;;;;;;;;22.00;59.55;100583.56;5116267;28;843;-44
2021/08/11 11:23:34;;;;;;;;;;;;;;;21.70;59.85;100580.41;5116197;28;755;-43
2021/08/11 11:26:00;;;;;;;;;;;;;;;21.37;60.98;100580.56;5116287;28;767;-60
2021/08/11 11:28:44;;;;;;;;;;;;;;;21.25;60.29;100581.13;5116621;28;1910;-58
2021/08/11 11:31:28;;;;;;;;;;;;;;;20.85;57.52;100581.66;5115735;28;883;-42
2021/08/11 11:33:53;;;;;;;;;;;;;;;21.24;59.57;100584.19;5115817;28;731;-45
2021/08/11 11:36:23;;;;;;;;;;;;;;;21.72;60.08;100586.44;5116060;28;780;-60
2021/08/11 11:39:04;;;;;;;;;;;;;;;22.02;59.59;100597.91;5116933;28;784;-44
2021/08/11 11:41:29;;;;;;;;;;;;;;;21.89;59.41;100583.00;5120076;28;771;-44
2021/08/11 11:43:57;;;;;;;;;;;;;;;21.23;61.65;100577.84;5119637;28;747;-45
2021/08/11 11:46:40;;;;;;;;;;;;;;;21.24;60.78;100579.47;5119355;28;935;-59
2021/08/11 11:49:15;;;;;;;;;;;;;;;21.03;57.25;100585.44;5120034;28;1971;-43
2021/08/11 11:51:40;;;;;;;;;;;;;;;21.62;59.80;100573.66;5119676;28;815;-60
2021/08/11 11:54:06;;;;;;;;;;;;;;;21.85;59.89;100570.91;5119586;28;740;-45
2021/08/11 11:56:32;;;;;;;;;;;;;;;21.76;59.87;100568.09;5101600;28;779;-61
2021/08/11 11:58:57;;;;;;;;;;;;;;;21.96;59.22;100577.03;5119207;28;839;-45
2021/08/11 12:01:23;;;;;;;;;;;;;;;21.78;59.85;100582.41;5101383;28;958;-44
2021/08/11 12:03:51;;;;;;;;;;;;;;;21.53;60.54;100576.38;5119801;28;913;-61
2021/08/11 12:06:32;;;;;;;;;;;;;;;21.19;59.16;100580.41;5118996;28;1010;-59
2021/08/11 12:08:58;;;;;;;;;;;;;;;21.03;57.35;100573.56;5119431;28;1975;-45
2021/08/11 12:11:25;;;;;;;;;;;;;;;21.22;58.62;100573.44;5119360;28;768;-45
2021/08/11 12:13:51;;;;;;;;;;;;;;;21.23;56.95;100565.97;5119131;28;803;-59
2021/08/11 12:16:17;;;;;;;;;;;;;;;21.20;55.22;100575.69;5119098;28;950;-43
2021/08/11 12:18:45;;;;;;;;;;;;;;;21.25;53.78;100570.06;5119430;28;609;-55
2021/08/11 12:21:10;;;;;;;;;;;;;;;21.17;53.04;100568.84;5119137;28;791;-44
2021/08/11 12:23:36;;;;;;;;;;;;;;;21.46;51.89;100566.81;5119402;28;831;-44
2021/08/11 12:26:05;;;;;;;;;;;;;;;21.46;50.94;100556.59;5118913;28;755;-61
2021/08/11 12:28:38;;;;;;;;;;;;;;;21.32;51.15;100559.38;5118457;28;2042;-46
2021/08/11 12:31:06;;;;;;;;;;;;;;;21.25;50.82;100560.94;5119266;28;1021;-55
2021/08/11 12:33:33;;;;;;;;;;;;;;;21.23;50.61;100566.78;5100309;28;864;-46
2021/08/11 12:35:59;;;;;;;;;;;;;;;21.14;50.38;100563.09;5118357;28;815;-45
2021/08/11 12:38:33;;;;;;;;;;;;;;;21.29;50.43;100553.66;5118859;28;847;-59
2021/08/11 12:41:12;;;;;;;;;;;;;;;21.43;50.07;100559.97;5119008;28;743;-43
2021/08/11 12:43:38;;;;;;;;;;;;;;;21.41;50.38;100556.69;5099837;28;943;-45
2021/08/11 12:46:05;;;;;;;;;;;;;;;21.46;51.58;100545.53;5118762;28;946;-53
2021/08/11 12:48:31;;;;;;;;;;;;;;;21.57;55.24;100559.13;5118841;28;1945;-43
2021/08/11 12:50:59;;;;;;;;;;;;;;;21.37;59.20;100555.69;5117435;28;806;-47
2021/08/11 12:53:28;;;;;;;;;;;;;;;21.20;61.95;100551.63;5118855;28;783;-58
2021/08/11 12:56:13;;;;;;;;;;;;;;;21.13;60.65;100564.25;5100028;28;847;-48